sensor_id;sensor_type;location;lat;lon;timestamp;P1;durP1;ratioP1;P2;durP2;ratioP2
5303;SDS011;2674;49.722;10.892;2023-10-08T01:23:10;4.53;;;3.00;;
5303;SDS011;2674;49.722;10.892;2023-10-08T01:25:38;5.77;;;3.00;;
5303;SDS011;2674;49.722;10.892;2023-10-08T01:28:06;7.93;;;3.00;;
5303;SDS011;2674;49.722;10.892;2023-10-08T01:30:47;14.03;;;3.97;;
5303;SDS011;2674;49.722;10.892;2023-10-08T01:33:18;8.10;;;2.60;;
5303;SDS011;2674;49.722;10.892;2023-10-08T01:35:46;4.97;;;3.10;;
5303;SDS011;2674;49.722;10.892;2023-10-08T01:38:14;6.33;;;2.80;;
5303;SDS011;2674;49.722;10.892;2023-10-08T01:40:41;6.63;;;3.13;;
5303;SDS011;2674;49.722;10.892;2023-10-08T01:43:07;5.97;;;3.80;;
5303;SDS011;2674;49.722;10.892;2023-10-08T01:45:37;7.63;;;3.23;;
5303;SDS011;2674;49.722;10.892;2023-10-08T01:48:07;7.83;;;3.87;;
5303;SDS011;2674;49.722;10.892;2023-10-08T01:50:39;5.43;;;2.53;;
5303;SDS011;2674;49.722;10.892;2023-10-08T01:53:05;4.23;;;2.50;;
5303;SDS011;2674;49.722;10.892;2023-10-08T01:55:34;8.00;;;3.30;;
5303;SDS011;2674;49.722;10.892;2023-10-08T01:58:13;7.37;;;3.20;;
5303;SDS011;2674;49.722;10.892;2023-10-08T02:00:45;4.80;;;3.10;;
5303;SDS011;2674;49.722;10.892;2023-10-08T02:03:11;7.43;;;2.83;;
5303;SDS011;2674;49.722;10.892;2023-10-08T02:05:40;6.63;;;3.20;;
5303;SDS011;2674;49.722;10.892;2023-10-08T02:08:08;6.23;;;3.47;;
5303;SDS011;2674;49.722;10.892;2023-10-08T02:10:35;6.87;;;3.53;;
5303;SDS011;2674;49.722;10.892;2023-10-08T02:13:01;5.47;;;2.60;;
5303;SDS011;2674;49.722;10.892;2023-10-08T02:15:27;3.60;;;2.73;;
5303;SDS011;2674;49.722;10.892;2023-10-08T02:17:53;6.10;;;3.37;;
5303;SDS011;2674;49.722;10.892;2023-10-08T02:20:23;8.37;;;3.40;;
5303;SDS011;2674;49.722;10.892;2023-10-08T02:22:49;5.10;;;2.63;;
5303;SDS011;2674;49.722;10.892;2023-10-08T02:25:15;4.60;;;2.60;;
5303;SDS011;2674;49.722;10.892;2023-10-08T02:27:41;6.07;;;2.67;;
5303;SDS011;2674;49.722;10.892;2023-10-08T02:30:07;5.07;;;3.00;;
5303;SDS011;2674;49.722;10.892;2023-10-08T02:32:35;6.27;;;2.80;;
5303;SDS011;2674;49.722;10.892;2023-10-08T02:35:08;4.30;;;3.13;;
5303;SDS011;2674;49.722;10.892;2023-10-08T02:37:39;8.10;;;3.00;;
5303;SDS011;2674;49.722;10.892;2023-10-08T02:40:08;8.07;;;3.83;;
5303;SDS011;2674;49.722;10.892;2023-10-08T02:42:54;6.67;;;3.10;;
5303;SDS011;2674;49.722;10.892;2023-10-08T02:45:26;8.67;;;3.77;;
5303;SDS011;2674;49.722;10.892;2023-10-08T02:47:56;4.13;;;2.70;;
5303;SDS011;2674;49.722;10.892;2023-10-08T02:50:22;4.87;;;2.70;;
5303;SDS011;2674;49.722;10.892;2023-10-08T02:52:48;4.90;;;3.43;;
5303;SDS011;2674;49.722;10.892;2023-10-08T02:55:18;5.30;;;3.13;;
5303;SDS011;2674;49.722;10.892;2023-10-08T02:57:59;6.83;;;3.23;;
5303;SDS011;2674;49.722;10.892;2023-10-08T03:00:27;7.67;;;3.30;;
5303;SDS011;2674;49.722;10.892;2023-10-08T03:02:56;4.33;;;2.93;;
5303;SDS011;2674;49.722;10.892;2023-10-08T03:05:22;5.00;;;2.90;;
5303;SDS011;2674;49.722;10.892;2023-10-08T03:07:54;5.37;;;2.90;;
5303;SDS011;2674;49.722;10.892;2023-10-08T03:10:20;8.90;;;3.67;;
5303;SDS011;2674;49.722;10.892;2023-10-08T03:12:47;7.83;;;3.70;;
5303;SDS011;2674;49.722;10.892;2023-10-08T03:15:15;14.30;;;3.13;;
5303;SDS011;2674;49.722;10.892;2023-10-08T03:18:03;4.90;;;3.07;;
5303;SDS011;2674;49.722;10.892;2023-10-08T03:20:38;6.60;;;2.87;;
5303;SDS011;2674;49.722;10.892;2023-10-08T03:23:08;11.30;;;3.27;;
5303;SDS011;2674;49.722;10.892;2023-10-08T03:25:52;4.03;;;2.73;;
5303;SDS011;2674;49.722;10.892;2023-10-08T03:28:26;7.63;;;3.70;;
5303;SDS011;2674;49.722;10.892;2023-10-08T03:30:53;3.30;;;2.53;;
5303;SDS011;2674;49.722;10.892;2023-10-08T03:33:38;4.70;;;3.20;;
5303;SDS011;2674;49.722;10.892;2023-10-08T03:36:08;7.67;;;3.00;;
5303;SDS011;2674;49.722;10.892;2023-10-08T03:38:39;3.30;;;2.50;;
5303;SDS011;2674;49.722;10.892;2023-10-08T03:41:31;7.10;;;3.30;;
5303;SDS011;2674;49.722;10.892;2023-10-08T03:43:57;9.53;;;2.87;;
5303;SDS011;2674;49.722;10.892;2023-10-08T03:46:32;7.50;;;3.30;;
5303;SDS011;2674;49.722;10.892;2023-10-08T03:49:06;12.40;;;3.43;;
5303;SDS011;2674;49.722;10.892;2023-10-08T03:51:42;5.00;;;2.93;;
5303;SDS011;2674;49.722;10.892;2023-10-08T03:54:08;3.90;;;2.93;;
5303;SDS011;2674;49.722;10.892;2023-10-08T03:56:34;6.40;;;3.60;;
5303;SDS011;2674;49.722;10.892;2023-10-08T03:59:02;4.60;;;3.20;;
5303;SDS011;2674;49.722;10.892;2023-10-08T04:01:37;5.13;;;3.13;;
5303;SDS011;2674;49.722;10.892;2023-10-08T04:04:07;6.60;;;3.37;;
5303;SDS011;2674;49.722;10.892;2023-10-08T04:06:38;4.27;;;2.70;;
5303;SDS011;2674;49.722;10.892;2023-10-08T04:09:04;5.50;;;2.40;;
5303;SDS011;2674;49.722;10.892;2023-10-08T04:11:33;6.73;;;3.30;;
5303;SDS011;2674;49.722;10.892;2023-10-08T04:14:14;5.83;;;2.90;;
5303;SDS011;2674;49.722;10.892;2023-10-08T04:16:43;8.10;;;3.73;;
5303;SDS011;2674;49.722;10.892;2023-10-08T04:19:10;6.87;;;3.13;;
5303;SDS011;2674;49.722;10.892;2023-10-08T04:21:36;6.90;;;2.70;;
5303;SDS011;2674;49.722;10.892;2023-10-08T04:24:05;6.00;;;3.23;;
5303;SDS011;2674;49.722;10.892;2023-10-08T04:26:31;5.40;;;2.40;;
5303;SDS011;2674;49.722;10.892;2023-10-08T04:28:58;5.63;;;2.73;;
5303;SDS011;2674;49.722;10.892;2023-10-08T04:31:28;7.27;;;3.80;;
5303;SDS011;2674;49.722;10.892;2023-10-08T04:34:03;5.70;;;2.90;;
5303;SDS011;2674;49.722;10.892;2023-10-08T04:36:43;6.77;;;3.27;;
5303;SDS011;2674;49.722;10.892;2023-10-08T04:39:13;5.90;;;3.03;;
5303;SDS011;2674;49.722;10.892;2023-10-08T04:41:46;3.27;;;2.83;;
5303;SDS011;2674;49.722;10.892;2023-10-08T04:44:17;9.93;;;3.70;;
5303;SDS011;2674;49.722;10.892;2023-10-08T04:46:43;7.07;;;3.33;;
5303;SDS011;2674;49.722;10.892;2023-10-08T04:49:16;7.97;;;3.50;;
5303;SDS011;2674;49.722;10.892;2023-10-08T04:51:59;5.10;;;2.90;;
5303;SDS011;2674;49.722;10.892;2023-10-08T04:54:30;8.40;;;4.30;;
5303;SDS011;2674;49.722;10.892;2023-10-08T04:57:00;5.43;;;3.07;;
5303;SDS011;2674;49.722;10.892;2023-10-08T04:59:29;5.77;;;3.57;;
5303;SDS011;2674;49.722;10.892;2023-10-08T05:01:59;13.07;;;3.87;;
5303;SDS011;2674;49.722;10.892;2023-10-08T05:04:48;7.80;;;3.20;;
5303;SDS011;2674;49.722;10.892;2023-10-08T05:07:18;16.77;;;3.80;;
5303;SDS011;2674;49.722;10.892;2023-10-08T05:10:03;4.90;;;3.47;;
5303;SDS011;2674;49.722;10.892;2023-10-08T05:12:29;6.27;;;3.33;;
5303;SDS011;2674;49.722;10.892;2023-10-08T05:14:58;12.07;;;4.27;;
5303;SDS011;2674;49.722;10.892;2023-10-08T05:17:40;8.70;;;3.20;;
5303;SDS011;2674;49.722;10.892;2023-10-08T05:20:29;6.20;;;3.30;;
5303;SDS011;2674;49.722;10.892;2023-10-08T05:23:13;4.97;;;3.20;;
5303;SDS011;2674;49.722;10.892;2023-10-08T05:26:02;5.20;;;3.37;;
5303;SDS011;2674;49.722;10.892;2023-10-08T05:28:35;4.17;;;3.10;;
5303;SDS011;2674;49.722;10.892;2023-10-08T05:31:11;4.37;;;3.23;;
5303;SDS011;2674;49.722;10.892;2023-10-08T05:33:39;9.47;;;3.20;;
5303;SDS011;2674;49.722;10.892;2023-10-08T05:36:23;4.80;;;2.67;;
5303;SDS011;2674;49.722;10.892;2023-10-08T05:39:08;7.73;;;3.20;;
5303;SDS011;2674;49.722;10.892;2023-10-08T05:41:49;7.80;;;3.20;;
5303;SDS011;2674;49.722;10.892;2023-10-08T05:44:30;4.40;;;2.80;;
5303;SDS011;2674;49.722;10.892;2023-10-08T05:47:05;12.83;;;5.37;;
5303;SDS011;2674;49.722;10.892;2023-10-08T05:49:37;5.97;;;2.80;;
5303;SDS011;2674;49.722;10.892;2023-10-08T05:52:07;6.47;;;2.90;;
5303;SDS011;2674;49.722;10.892;2023-10-08T05:54:35;5.43;;;3.17;;
5303;SDS011;2674;49.722;10.892;2023-10-08T05:57:12;4.73;;;2.60;;
5303;SDS011;2674;49.722;10.892;2023-10-08T05:59:39;4.63;;;3.00;;
5303;SDS011;2674;49.722;10.892;2023-10-08T06:02:21;4.70;;;2.77;;
5303;SDS011;2674;49.722;10.892;2023-10-08T06:04:56;13.23;;;3.60;;
5303;SDS011;2674;49.722;10.892;2023-10-08T06:07:55;9.40;;;3.20;;
5303;SDS011;2674;49.722;10.892;2023-10-08T06:10:24;7.37;;;3.40;;
5303;SDS011;2674;49.722;10.892;2023-10-08T06:12:54;5.30;;;3.20;;
5303;SDS011;2674;49.722;10.892;2023-10-08T06:15:47;9.30;;;3.87;;
5303;SDS011;2674;49.722;10.892;2023-10-08T06:20:41;6.80;;;3.90;;
5303;SDS011;2674;49.722;10.892;2023-10-08T06:23:11;6.40;;;2.93;;
5303;SDS011;2674;49.722;10.892;2023-10-08T06:25:47;8.13;;;3.17;;
5303;SDS011;2674;49.722;10.892;2023-10-08T06:28:19;7.33;;;3.63;;
5303;SDS011;2674;49.722;10.892;2023-10-08T06:30:46;8.80;;;4.40;;
5303;SDS011;2674;49.722;10.892;2023-10-08T06:33:13;7.53;;;3.60;;
5303;SDS011;2674;49.722;10.892;2023-10-08T06:35:40;7.57;;;4.10;;
5303;SDS011;2674;49.722;10.892;2023-10-08T06:38:26;7.00;;;4.00;;
5303;SDS011;2674;49.722;10.892;2023-10-08T06:40:56;4.17;;;3.10;;
5303;SDS011;2674;49.722;10.892;2023-10-08T06:43:25;9.63;;;3.70;;
5303;SDS011;2674;49.722;10.892;2023-10-08T06:45:53;6.63;;;3.30;;
5303;SDS011;2674;49.722;10.892;2023-10-08T06:48:23;4.70;;;3.90;;
5303;SDS011;2674;49.722;10.892;2023-10-08T06:50:50;7.87;;;3.97;;
5303;SDS011;2674;49.722;10.892;2023-10-08T06:53:22;6.90;;;4.33;;
5303;SDS011;2674;49.722;10.892;2023-10-08T06:55:48;6.27;;;3.40;;
5303;SDS011;2674;49.722;10.892;2023-10-08T06:58:20;5.23;;;3.93;;
5303;SDS011;2674;49.722;10.892;2023-10-08T07:00:45;5.57;;;3.40;;
5303;SDS011;2674;49.722;10.892;2023-10-08T07:03:12;6.63;;;3.60;;
5303;SDS011;2674;49.722;10.892;2023-10-08T07:05:45;5.00;;;3.20;;
5303;SDS011;2674;49.722;10.892;2023-10-08T07:08:22;7.00;;;4.00;;
5303;SDS011;2674;49.722;10.892;2023-10-08T07:10:52;5.30;;;3.67;;
5303;SDS011;2674;49.722;10.892;2023-10-08T07:13:19;6.17;;;3.43;;
5303;SDS011;2674;49.722;10.892;2023-10-08T07:15:49;7.23;;;3.83;;
5303;SDS011;2674;49.722;10.892;2023-10-08T07:18:16;6.73;;;4.00;;
5303;SDS011;2674;49.722;10.892;2023-10-08T07:21:00;5.23;;;3.40;;
5303;SDS011;2674;49.722;10.892;2023-10-08T07:23:36;8.23;;;4.40;;
5303;SDS011;2674;49.722;10.892;2023-10-08T07:26:18;10.10;;;3.67;;
5303;SDS011;2674;49.722;10.892;2023-10-08T07:28:49;11.60;;;3.80;;
5303;SDS011;2674;49.722;10.892;2023-10-08T07:31:19;10.90;;;4.30;;
5303;SDS011;2674;49.722;10.892;2023-10-08T07:33:47;7.43;;;3.53;;
5303;SDS011;2674;49.722;10.892;2023-10-08T07:36:25;5.20;;;4.37;;
5303;SDS011;2674;49.722;10.892;2023-10-08T07:38:53;9.40;;;4.23;;
5303;SDS011;2674;49.722;10.892;2023-10-08T07:41:19;5.97;;;3.43;;
5303;SDS011;2674;49.722;10.892;2023-10-08T07:43:46;5.30;;;3.50;;
5303;SDS011;2674;49.722;10.892;2023-10-08T07:46:22;6.80;;;3.37;;
5303;SDS011;2674;49.722;10.892;2023-10-08T07:48:51;9.03;;;3.20;;
5303;SDS011;2674;49.722;10.892;2023-10-08T07:51:17;5.30;;;3.40;;
5303;SDS011;2674;49.722;10.892;2023-10-08T07:53:50;7.40;;;4.20;;
5303;SDS011;2674;49.722;10.892;2023-10-08T07:56:22;4.60;;;3.50;;
5303;SDS011;2674;49.722;10.892;2023-10-08T07:58:52;5.00;;;3.07;;
5303;SDS011;2674;49.722;10.892;2023-10-08T08:01:20;12.00;;;4.70;;
5303;SDS011;2674;49.722;10.892;2023-10-08T08:03:49;6.63;;;3.70;;
5303;SDS011;2674;49.722;10.892;2023-10-08T08:06:15;6.57;;;4.93;;
5303;SDS011;2674;49.722;10.892;2023-10-08T08:08:41;11.10;;;4.00;;
5303;SDS011;2674;49.722;10.892;2023-10-08T08:11:09;5.53;;;3.60;;
5303;SDS011;2674;49.722;10.892;2023-10-08T08:13:41;11.30;;;3.90;;
5303;SDS011;2674;49.722;10.892;2023-10-08T08:16:07;10.93;;;4.03;;
5303;SDS011;2674;49.722;10.892;2023-10-08T08:18:44;9.27;;;4.10;;
5303;SDS011;2674;49.722;10.892;2023-10-08T08:21:20;6.40;;;3.70;;
5303;SDS011;2674;49.722;10.892;2023-10-08T08:23:48;7.60;;;3.63;;
5303;SDS011;2674;49.722;10.892;2023-10-08T08:26:15;5.73;;;4.03;;
5303;SDS011;2674;49.722;10.892;2023-10-08T08:28:58;10.97;;;3.97;;
5303;SDS011;2674;49.722;10.892;2023-10-08T08:31:27;14.23;;;4.37;;
5303;SDS011;2674;49.722;10.892;2023-10-08T08:34:00;13.47;;;3.67;;
5303;SDS011;2674;49.722;10.892;2023-10-08T08:36:39;8.43;;;3.70;;
5303;SDS011;2674;49.722;10.892;2023-10-08T08:39:11;7.27;;;3.57;;
5303;SDS011;2674;49.722;10.892;2023-10-08T08:41:42;11.80;;;3.70;;
5303;SDS011;2674;49.722;10.892;2023-10-08T08:44:08;8.47;;;4.10;;
5303;SDS011;2674;49.722;10.892;2023-10-08T08:46:35;17.50;;;3.90;;
5303;SDS011;2674;49.722;10.892;2023-10-08T08:49:06;7.27;;;4.00;;
5303;SDS011;2674;49.722;10.892;2023-10-08T08:51:33;13.40;;;4.57;;
5303;SDS011;2674;49.722;10.892;2023-10-08T08:54:03;10.70;;;4.90;;
5303;SDS011;2674;49.722;10.892;2023-10-08T08:56:33;14.07;;;5.03;;
5303;SDS011;2674;49.722;10.892;2023-10-08T08:59:01;7.93;;;4.30;;
5303;SDS011;2674;49.722;10.892;2023-10-08T09:01:30;5.53;;;3.83;;
5303;SDS011;2674;49.722;10.892;2023-10-08T09:04:04;7.63;;;3.80;;
5303;SDS011;2674;49.722;10.892;2023-10-08T09:06:34;9.53;;;4.20;;
5303;SDS011;2674;49.722;10.892;2023-10-08T09:09:05;10.10;;;4.43;;
5303;SDS011;2674;49.722;10.892;2023-10-08T09:11:50;15.53;;;4.33;;
5303;SDS011;2674;49.722;10.892;2023-10-08T09:14:23;21.10;;;4.53;;
5303;SDS011;2674;49.722;10.892;2023-10-08T09:16:55;8.07;;;3.60;;
5303;SDS011;2674;49.722;10.892;2023-10-08T09:19:21;11.17;;;4.13;;
5303;SDS011;2674;49.722;10.892;2023-10-08T09:22:09;5.80;;;3.77;;
5303;SDS011;2674;49.722;10.892;2023-10-08T09:24:37;7.80;;;4.07;;
5303;SDS011;2674;49.722;10.892;2023-10-08T09:27:04;6.30;;;3.60;;
5303;SDS011;2674;49.722;10.892;2023-10-08T09:29:40;5.63;;;3.67;;
5303;SDS011;2674;49.722;10.892;2023-10-08T09:32:11;7.93;;;3.50;;
5303;SDS011;2674;49.722;10.892;2023-10-08T09:34:48;12.90;;;4.40;;
5303;SDS011;2674;49.722;10.892;2023-10-08T09:37:15;10.73;;;4.40;;
5303;SDS011;2674;49.722;10.892;2023-10-08T09:39:42;7.13;;;3.50;;
5303;SDS011;2674;49.722;10.892;2023-10-08T09:42:11;6.20;;;3.83;;
5303;SDS011;2674;49.722;10.892;2023-10-08T09:44:39;7.93;;;4.00;;
5303;SDS011;2674;49.722;10.892;2023-10-08T09:47:06;8.83;;;4.20;;
5303;SDS011;2674;49.722;10.892;2023-10-08T09:52:07;7.57;;;4.03;;
5303;SDS011;2674;49.722;10.892;2023-10-08T09:57:28;9.07;;;4.20;;
5303;SDS011;2674;49.722;10.892;2023-10-08T09:59:55;5.23;;;3.27;;
5303;SDS011;2674;49.722;10.892;2023-10-08T10:02:22;5.77;;;3.67;;
5303;SDS011;2674;49.722;10.892;2023-10-08T10:04:52;11.30;;;5.40;;
5303;SDS011;2674;49.722;10.892;2023-10-08T10:07:20;8.70;;;4.30;;
5303;SDS011;2674;49.722;10.892;2023-10-08T10:09:49;9.53;;;3.70;;
5303;SDS011;2674;49.722;10.892;2023-10-08T10:12:20;8.20;;;4.00;;
5303;SDS011;2674;49.722;10.892;2023-10-08T10:14:52;7.00;;;4.00;;
5303;SDS011;2674;49.722;10.892;2023-10-08T10:17:25;7.03;;;4.40;;
5303;SDS011;2674;49.722;10.892;2023-10-08T10:19:55;19.80;;;4.70;;
5303;SDS011;2674;49.722;10.892;2023-10-08T10:22:30;9.97;;;5.23;;
5303;SDS011;2674;49.722;10.892;2023-10-08T10:25:04;7.40;;;4.23;;
5303;SDS011;2674;49.722;10.892;2023-10-08T10:30:20;5.87;;;3.97;;
5303;SDS011;2674;49.722;10.892;2023-10-08T10:32:51;8.60;;;5.20;;
5303;SDS011;2674;49.722;10.892;2023-10-08T10:35:17;9.20;;;4.80;;
5303;SDS011;2674;49.722;10.892;2023-10-08T10:37:44;9.70;;;4.30;;
5303;SDS011;2674;49.722;10.892;2023-10-08T10:40:20;15.93;;;7.33;;
5303;SDS011;2674;49.722;10.892;2023-10-08T10:43:04;13.63;;;5.90;;
5303;SDS011;2674;49.722;10.892;2023-10-08T10:45:40;12.23;;;6.13;;
5303;SDS011;2674;49.722;10.892;2023-10-08T10:48:11;6.80;;;4.40;;
5303;SDS011;2674;49.722;10.892;2023-10-08T10:50:47;12.43;;;4.50;;
5303;SDS011;2674;49.722;10.892;2023-10-08T10:53:38;10.70;;;4.63;;
5303;SDS011;2674;49.722;10.892;2023-10-08T10:56:32;9.07;;;4.50;;
5303;SDS011;2674;49.722;10.892;2023-10-08T10:59:05;7.67;;;3.77;;
5303;SDS011;2674;49.722;10.892;2023-10-08T11:01:48;10.03;;;4.40;;
5303;SDS011;2674;49.722;10.892;2023-10-08T11:04:33;8.83;;;4.10;;
5303;SDS011;2674;49.722;10.892;2023-10-08T11:07:10;7.30;;;3.83;;
5303;SDS011;2674;49.722;10.892;2023-10-08T11:09:37;9.63;;;5.07;;
5303;SDS011;2674;49.722;10.892;2023-10-08T11:12:04;7.03;;;3.60;;
5303;SDS011;2674;49.722;10.892;2023-10-08T11:14:40;7.13;;;3.80;;
5303;SDS011;2674;49.722;10.892;2023-10-08T11:17:15;7.70;;;4.20;;
5303;SDS011;2674;49.722;10.892;2023-10-08T11:19:43;9.40;;;4.53;;
5303;SDS011;2674;49.722;10.892;2023-10-08T11:22:11;9.97;;;4.70;;
5303;SDS011;2674;49.722;10.892;2023-10-08T11:24:42;10.13;;;4.57;;
5303;SDS011;2674;49.722;10.892;2023-10-08T11:27:12;8.40;;;4.50;;
5303;SDS011;2674;49.722;10.892;2023-10-08T11:29:49;7.80;;;4.43;;
5303;SDS011;2674;49.722;10.892;2023-10-08T11:32:22;8.57;;;4.40;;
5303;SDS011;2674;49.722;10.892;2023-10-08T11:37:32;7.50;;;4.63;;
5303;SDS011;2674;49.722;10.892;2023-10-08T11:40:01;6.90;;;4.10;;
5303;SDS011;2674;49.722;10.892;2023-10-08T11:42:42;13.90;;;4.53;;
5303;SDS011;2674;49.722;10.892;2023-10-08T11:45:16;8.20;;;4.93;;
5303;SDS011;2674;49.722;10.892;2023-10-08T11:47:52;8.43;;;4.07;;
5303;SDS011;2674;49.722;10.892;2023-10-08T11:50:28;13.43;;;5.00;;
5303;SDS011;2674;49.722;10.892;2023-10-08T11:52:57;9.70;;;4.80;;
5303;SDS011;2674;49.722;10.892;2023-10-08T11:55:27;11.30;;;5.50;;
5303;SDS011;2674;49.722;10.892;2023-10-08T11:58:02;9.00;;;4.40;;
5303;SDS011;2674;49.722;10.892;2023-10-08T12:00:42;7.43;;;4.23;;
5303;SDS011;2674;49.722;10.892;2023-10-08T12:03:17;8.73;;;4.53;;
5303;SDS011;2674;49.722;10.892;2023-10-08T12:05:43;6.80;;;4.27;;
5303;SDS011;2674;49.722;10.892;2023-10-08T12:08:17;9.73;;;4.13;;
5303;SDS011;2674;49.722;10.892;2023-10-08T12:10:47;7.93;;;4.17;;
5303;SDS011;2674;49.722;10.892;2023-10-08T12:13:16;12.40;;;4.77;;
5303;SDS011;2674;49.722;10.892;2023-10-08T12:15:43;11.20;;;4.80;;
5303;SDS011;2674;49.722;10.892;2023-10-08T12:18:10;10.67;;;5.17;;
5303;SDS011;2674;49.722;10.892;2023-10-08T12:20:51;11.10;;;5.43;;
5303;SDS011;2674;49.722;10.892;2023-10-08T12:23:19;12.87;;;4.87;;
5303;SDS011;2674;49.722;10.892;2023-10-08T12:25:53;10.33;;;4.50;;
5303;SDS011;2674;49.722;10.892;2023-10-08T12:28:24;14.37;;;6.30;;
5303;SDS011;2674;49.722;10.892;2023-10-08T12:30:50;10.97;;;5.20;;
5303;SDS011;2674;49.722;10.892;2023-10-08T12:33:26;11.47;;;5.80;;
5303;SDS011;2674;49.722;10.892;2023-10-08T12:35:55;8.70;;;5.00;;
5303;SDS011;2674;49.722;10.892;2023-10-08T12:38:22;11.90;;;6.43;;
5303;SDS011;2674;49.722;10.892;2023-10-08T12:40:48;12.57;;;5.80;;
5303;SDS011;2674;49.722;10.892;2023-10-08T12:43:21;8.47;;;5.17;;
5303;SDS011;2674;49.722;10.892;2023-10-08T12:45:51;12.20;;;5.83;;
5303;SDS011;2674;49.722;10.892;2023-10-08T12:48:20;10.60;;;5.40;;
5303;SDS011;2674;49.722;10.892;2023-10-08T12:50:51;12.50;;;4.93;;
5303;SDS011;2674;49.722;10.892;2023-10-08T12:53:24;17.90;;;5.70;;
5303;SDS011;2674;49.722;10.892;2023-10-08T12:56:02;9.23;;;4.90;;
5303;SDS011;2674;49.722;10.892;2023-10-08T12:58:34;11.83;;;5.43;;
5303;SDS011;2674;49.722;10.892;2023-10-08T13:01:13;9.57;;;4.73;;
5303;SDS011;2674;49.722;10.892;2023-10-08T13:03:42;6.73;;;4.90;;
5303;SDS011;2674;49.722;10.892;2023-10-08T13:06:19;12.83;;;5.40;;
5303;SDS011;2674;49.722;10.892;2023-10-08T13:08:53;16.07;;;5.90;;
5303;SDS011;2674;49.722;10.892;2023-10-08T13:11:20;15.60;;;5.67;;
5303;SDS011;2674;49.722;10.892;2023-10-08T13:13:57;9.80;;;5.43;;
5303;SDS011;2674;49.722;10.892;2023-10-08T13:16:23;8.20;;;5.17;;
5303;SDS011;2674;49.722;10.892;2023-10-08T13:18:50;9.40;;;4.63;;
5303;SDS011;2674;49.722;10.892;2023-10-08T13:21:17;10.30;;;5.40;;
5303;SDS011;2674;49.722;10.892;2023-10-08T13:23:50;9.90;;;4.00;;
5303;SDS011;2674;49.722;10.892;2023-10-08T13:26:16;6.60;;;3.30;;
5303;SDS011;2674;49.722;10.892;2023-10-08T13:28:43;6.73;;;3.40;;
5303;SDS011;2674;49.722;10.892;2023-10-08T13:31:10;7.73;;;3.50;;
5303;SDS011;2674;49.722;10.892;2023-10-08T13:33:37;3.77;;;2.60;;
5303;SDS011;2674;49.722;10.892;2023-10-08T13:36:08;8.70;;;3.40;;
5303;SDS011;2674;49.722;10.892;2023-10-08T13:38:38;2.90;;;2.43;;
5303;SDS011;2674;49.722;10.892;2023-10-08T13:41:06;3.20;;;2.90;;
5303;SDS011;2674;49.722;10.892;2023-10-08T13:43:46;9.20;;;3.30;;
5303;SDS011;2674;49.722;10.892;2023-10-08T13:46:19;6.90;;;3.10;;
5303;SDS011;2674;49.722;10.892;2023-10-08T13:48:48;9.37;;;3.03;;
5303;SDS011;2674;49.722;10.892;2023-10-08T13:51:15;7.97;;;2.17;;
5303;SDS011;2674;49.722;10.892;2023-10-08T13:53:49;3.40;;;2.37;;
5303;SDS011;2674;49.722;10.892;2023-10-08T13:56:25;2.50;;;2.10;;
5303;SDS011;2674;49.722;10.892;2023-10-08T13:58:58;4.80;;;2.57;;
5303;SDS011;2674;49.722;10.892;2023-10-08T14:01:37;2.20;;;1.70;;
5303;SDS011;2674;49.722;10.892;2023-10-08T14:04:06;6.33;;;2.20;;
5303;SDS011;2674;49.722;10.892;2023-10-08T14:06:36;2.17;;;1.67;;
5303;SDS011;2674;49.722;10.892;2023-10-08T14:09:02;2.13;;;1.93;;
5303;SDS011;2674;49.722;10.892;2023-10-08T14:11:37;6.83;;;2.17;;
5303;SDS011;2674;49.722;10.892;2023-10-08T14:14:03;3.40;;;1.90;;
5303;SDS011;2674;49.722;10.892;2023-10-08T14:16:51;1.90;;;1.80;;
5303;SDS011;2674;49.722;10.892;2023-10-08T14:19:24;2.87;;;2.13;;
5303;SDS011;2674;49.722;10.892;2023-10-08T14:22:01;1.60;;;1.50;;
5303;SDS011;2674;49.722;10.892;2023-10-08T14:24:33;2.70;;;1.67;;
5303;SDS011;2674;49.722;10.892;2023-10-08T14:27:03;5.20;;;1.60;;
5303;SDS011;2674;49.722;10.892;2023-10-08T14:29:35;2.67;;;1.60;;
5303;SDS011;2674;49.722;10.892;2023-10-08T14:32:12;6.13;;;1.67;;
5303;SDS011;2674;49.722;10.892;2023-10-08T14:34:38;4.70;;;1.67;;
5303;SDS011;2674;49.722;10.892;2023-10-08T14:37:12;6.03;;;1.60;;
5303;SDS011;2674;49.722;10.892;2023-10-08T14:39:57;2.97;;;1.50;;
5303;SDS011;2674;49.722;10.892;2023-10-08T14:42:41;1.33;;;1.20;;
5303;SDS011;2674;49.722;10.892;2023-10-08T14:45:28;1.63;;;1.33;;
5303;SDS011;2674;49.722;10.892;2023-10-08T14:48:00;2.50;;;1.67;;
5303;SDS011;2674;49.722;10.892;2023-10-08T14:50:27;6.43;;;1.60;;
5303;SDS011;2674;49.722;10.892;2023-10-08T14:52:56;2.23;;;1.57;;
5303;SDS011;2674;49.722;10.892;2023-10-08T14:55:22;3.07;;;1.30;;
5303;SDS011;2674;49.722;10.892;2023-10-08T14:57:49;3.13;;;1.20;;
5303;SDS011;2674;49.722;10.892;2023-10-08T15:00:18;2.07;;;1.17;;
5303;SDS011;2674;49.722;10.892;2023-10-08T15:02:52;2.37;;;1.50;;
5303;SDS011;2674;49.722;10.892;2023-10-08T15:05:22;3.27;;;1.37;;
5303;SDS011;2674;49.722;10.892;2023-10-08T15:07:49;2.30;;;1.37;;
5303;SDS011;2674;49.722;10.892;2023-10-08T15:10:16;5.33;;;3.80;;
5303;SDS011;2674;49.722;10.892;2023-10-08T15:12:42;11.83;;;1.60;;
5303;SDS011;2674;49.722;10.892;2023-10-08T15:15:08;2.10;;;1.90;;
5303;SDS011;2674;49.722;10.892;2023-10-08T15:17:39;2.30;;;1.07;;
5303;SDS011;2674;49.722;10.892;2023-10-08T15:20:06;1.40;;;1.27;;
5303;SDS011;2674;49.722;10.892;2023-10-08T15:22:33;2.83;;;1.43;;
5303;SDS011;2674;49.722;10.892;2023-10-08T15:25:00;7.27;;;4.27;;
5303;SDS011;2674;49.722;10.892;2023-10-08T15:27:27;5.47;;;4.90;;
5303;SDS011;2674;49.722;10.892;2023-10-08T15:29:56;1.63;;;1.27;;
5303;SDS011;2674;49.722;10.892;2023-10-08T15:32:22;1.60;;;1.50;;
5303;SDS011;2674;49.722;10.892;2023-10-08T15:34:47;2.97;;;1.33;;
5303;SDS011;2674;49.722;10.892;2023-10-08T15:37:13;1.40;;;1.40;;
5303;SDS011;2674;49.722;10.892;2023-10-08T15:39:39;3.20;;;1.90;;
5303;SDS011;2674;49.722;10.892;2023-10-08T15:42:05;1.60;;;1.43;;
5303;SDS011;2674;49.722;10.892;2023-10-08T15:44:31;2.80;;;1.40;;
5303;SDS011;2674;49.722;10.892;2023-10-08T15:46:57;3.13;;;1.80;;
5303;SDS011;2674;49.722;10.892;2023-10-08T15:49:23;1.67;;;1.57;;
5303;SDS011;2674;49.722;10.892;2023-10-08T15:51:48;3.23;;;1.60;;
5303;SDS011;2674;49.722;10.892;2023-10-08T15:54:14;1.53;;;1.43;;
5303;SDS011;2674;49.722;10.892;2023-10-08T15:56:45;1.97;;;1.50;;
5303;SDS011;2674;49.722;10.892;2023-10-08T15:59:12;3.40;;;1.53;;
5303;SDS011;2674;49.722;10.892;2023-10-08T16:01:37;2.00;;;1.20;;
5303;SDS011;2674;49.722;10.892;2023-10-08T16:04:03;2.10;;;1.40;;
5303;SDS011;2674;49.722;10.892;2023-10-08T16:06:31;4.63;;;1.47;;
5303;SDS011;2674;49.722;10.892;2023-10-08T16:08:56;4.70;;;1.60;;
5303;SDS011;2674;49.722;10.892;2023-10-08T16:11:22;11.33;;;2.30;;
5303;SDS011;2674;49.722;10.892;2023-10-08T16:13:48;4.80;;;4.30;;
5303;SDS011;2674;49.722;10.892;2023-10-08T16:16:14;1.70;;;1.60;;
5303;SDS011;2674;49.722;10.892;2023-10-08T16:18:39;3.00;;;1.90;;
5303;SDS011;2674;49.722;10.892;2023-10-08T16:21:06;1.33;;;1.23;;
5303;SDS011;2674;49.722;10.892;2023-10-08T16:23:34;1.63;;;1.53;;
5303;SDS011;2674;49.722;10.892;2023-10-08T16:26:01;3.27;;;1.40;;
5303;SDS011;2674;49.722;10.892;2023-10-08T16:28:30;1.47;;;1.30;;
5303;SDS011;2674;49.722;10.892;2023-10-08T16:30:57;4.10;;;2.30;;
5303;SDS011;2674;49.722;10.892;2023-10-08T16:33:23;1.80;;;1.70;;
5303;SDS011;2674;49.722;10.892;2023-10-08T16:35:49;5.57;;;1.40;;
5303;SDS011;2674;49.722;10.892;2023-10-08T16:38:18;4.90;;;1.80;;
5303;SDS011;2674;49.722;10.892;2023-10-08T16:40:44;6.07;;;1.77;;
5303;SDS011;2674;49.722;10.892;2023-10-08T16:43:10;3.47;;;2.90;;
5303;SDS011;2674;49.722;10.892;2023-10-08T16:45:40;3.07;;;2.30;;
5303;SDS011;2674;49.722;10.892;2023-10-08T16:48:08;3.30;;;3.00;;
5303;SDS011;2674;49.722;10.892;2023-10-08T16:53:02;3.57;;;3.37;;
5303;SDS011;2674;49.722;10.892;2023-10-08T16:55:28;6.63;;;3.27;;
5303;SDS011;2674;49.722;10.892;2023-10-08T16:57:53;6.97;;;2.60;;
5303;SDS011;2674;49.722;10.892;2023-10-08T17:00:19;3.17;;;2.40;;